Hyrum, UT (84319)

4:43 AM MDT on October 02, 2014 (GMT -0600)
Mouth of BSF Canyon | Change Station
CLOSE
Current Station
Personal Weather Station
Location: Hyrum, UT
Elevation: 4829 ft
Nearby Weather Stations

Elev 4829 ft 41.63 °N, 111.82 °W | Updated 2 seconds ago

Clear
Clear
37.8 °F
Feels Like 36 °F
N
3.1
Wind Variable Wind from North
Gusts 57.3 mph

Today
High -- | Low -- °F
--% Chance of Precip.
Yesterday
High -- | Low -- °F
Precip. -- in
7:25 AM 7:07 PM
First Quarter, 57% visible
Pressure 30.00 in
Visibility 10.0 miles
Clouds Clear
Windchill 36 °F
Dew Point 21 °F
Humidity 50%
Rainfall 0.96 in
Snow Depth 0 in , 0 in , 2 in
UV 0 out of 12
Pollen 3.60 out of 12
PM2.5 Good
Flu Activity Not available.
METAR KBMC 011135Z AUTO 00000KT 10SM CLR 04/02 A3000 RMK AO1 T00410023

More Conditions Fewer Conditions

Pressure 30.00 in
Visibility 10.0 miles
Clouds Clear
Windchill 36 °F
Dew Point 21 °F
Humidity 50%
Rainfall 0.96 in
Snow Depth 0 in , 0 in , 2 in
UV 0 out of 12
Pollen 3.60 out of 12
PM2.5 Good
Flu Activity Not available.
METAR KBMC 011135Z AUTO 00000KT 10SM CLR 04/02 A3000 RMK AO1 T00410023

More Conditions Fewer Conditions

10-Day Weather Forecast

Almanac

Astronomy

Oct. 02, 2014 Rise Set
Actual Time 7:25 AM MDT 7:07 PM MDT
Civil Twilight 6:57 AM MDT 7:34 PM MDT
Nautical Twilight 6:25 AM MDT 8:07 PM MDT
Astronomical Twilight 5:52 AM MDT 8:39 PM MDT
Moon 3:20 PM MDT 12:41 AM MDT
Length of Visible Light 12h 37m
Length of Day
11h 41m
Tomorrow will be 2m 45s shorter.
First Quarter, 57% of the Moon is Illuminated
Today
First Quarter
Oct 8
Full
Oct 15
Last Quarter
Oct 23
New
Oct 30
First Quarter

Today's Extremes

State Highs State Lows

Community

WunderPhotos

Upload Photos

1,758,210 photos uploaded!

WunderBlogs® & News

Nearby

Air Quality

  Air Quality AQ Index Pollutant
Yesterday Good
OZONE
Yesterday Good
PM2.5
Current Good
PM2.5

Snow Depth

Station Depth Elevation
Hickerson Park 0 in 9100 ft
Lily Lake 0 in 9050 ft
Daniels-Strawberry 2 in 8000 ft
Little Grassy 1 in 6100 ft
Webster Flat 0 in 9200 ft

Earthquake Activity

City Distance Mag. Time & Date
No recent earthquake activity has been reported nearby.
Minimum magnitude displayed is 2.5.

Coastal Water Temperatures

Place Temperature
No Stations Reporting

Nearby Weather Stations